Latest Coastal Weather Observations for Stenhouse Bay

IDS60701

Issued at 6:25 pm CDT Friday 31 October 2014 (issued every 10 minutes, with the page automatically refreshed every 10 minutes)

About coastal observations | Map of coastal stations | Coastal observations for SA | Marine services | Other Formats
Station Details ID: 022049 Name: STENHOUSE BAY Lat: -35.28 Lon: 136.94 Height: 42.0 m
Data from the previous 72 hours. | See also: Recent months at Stenhouse Bay
Date/Time
CDT
Temp

°C
Wind Pressure Rain
since 9am
mm
Weather Cloud Vis
km
Sea
Height
m
Swell
Dir
 
Speed
knots
Gust
knots
hPa Trend Height
m
Period
s
Dir
31/06:00pm 16.4 SW 17 23 1002.7 - 0.0 - - - - - - -
31/05:30pm 16.8 SW 18 25 1002.7 - 0.0 - - - - - - -
31/05:00pm 17.0 WSW 21 29 1002.7 - 0.0 - - - - - - -
31/04:30pm 18.3 WSW 19 28 1002.1 - 0.0 - - - - - - -
31/04:00pm 18.7 WSW 18 23 1001.8 - 0.0 - - - - - - -
31/03:30pm 21.5 WSW 13 18 1001.6 - 0.0 - - - - - - -
31/03:00pm 22.1 WSW 9 14 1001.7 - 0.0 - - - - - - -
31/02:30pm 22.8 WSW 11 15 1002.1 - 0.0 - - - - - - -
31/02:00pm 23.3 WSW 14 19 1002.3 - 0.0 - - - - - - -
31/01:30pm 24.0 WSW 15 21 1002.5 - 0.0 - - - - - - -
31/01:00pm 25.3 WSW 10 16 1002.3 - 0.0 - - - - - - -
31/12:30pm 25.6 W 9 14 1002.6 - 0.0 - - - - - - -
31/12:00pm 25.6 WNW 11 15 1002.8 - 0.0 - - - - - - -
31/11:30am 26.2 WNW 9 14 1003.2 - 0.0 - - - - - - -
31/11:00am 25.9 NW 13 19 1003.8 - 0.0 - - - - - - -
31/10:33am 24.6 NNW 14 18 1003.3 - 0.0 - - - - - - -
31/10:30am 24.5 W 23 30 1004.1 - 0.0 - - - - - - -
31/10:29am 26.0 NW 16 30 1004.2 - 0.0 - - - - - - -
31/10:27am 25.4 NNW 15 19 1003.3 - 0.0 - - - - - - -
31/10:24am 26.4 W 20 27 1003.8 - 0.0 - - - - - - -
31/10:00am 28.6 N 14 20 1002.8 - 0.0 - - - - - - -
31/09:30am 26.7 N 11 15 1003.1 - 0.0 - - - - - - -
31/09:00am 24.7 N 12 17 1003.5 - 0.0 - - - - - - -
31/08:30am 22.0 N 8 10 1003.7 - 0.0 - - - - - - -
31/08:00am 19.4 N 4 6 1004.1 - 0.0 - - - - - - -
31/07:30am 17.6 N 8 11 1004.2 - 0.0 - - - - - - -
31/07:00am 16.7 N 9 12 1004.0 - 0.0 - - - - - - -
31/06:30am 15.9 N 9 11 1004.2 - 0.0 - - - - - - -
31/06:00am 15.8 N 8 10 1004.4 - 0.0 - - - - - - -
31/05:30am 15.3 N 8 9 1004.6 - 0.0 - - - - - - -
31/05:00am 15.2 N 7 8 1004.7 - 0.0 - - - - - - -
31/04:30am 15.6 N 9 11 1005.3 - 0.0 - - - - - - -
31/04:00am 15.5 N 7 10 1005.8 - 0.0 - - - - - - -
31/03:30am 16.8 NNE 8 10 1006.3 - 0.0 - - - - - - -
31/03:00am 17.1 ENE 10 13 1006.7 - 0.0 - - - - - - -
31/02:30am 16.9 ENE 9 12 1007.2 - 0.0 - - - - - - -
31/02:00am 16.9 ENE 7 10 1007.8 - 0.0 - - - - - - -
31/01:30am 16.8 E 7 11 1008.4 - 0.0 - - - - - - -
31/01:00am 16.9 E 8 11 1008.9 - 0.0 - - - - - - -
31/12:30am 16.9 E 6 9 1009.7 - 0.0 - - - - - - -
31/12:00am 16.6 E 8 10 1010.1 - 0.0 - - - - - - -
 
Date/Time
CDT
Temp

°C
Wind Pressure Rain
since 9am
mm
Weather Cloud Vis
km
Sea
Height
m
Swell
Dir
 
Speed
knots
Gust
knots
hPa Trend Height
m
Period
s
Dir
30/11:30pm 16.5 E 7 9 1010.3 - 0.0 - - - - - - -
30/11:00pm 16.6 E 8 10 1010.8 - 0.0 - - - - - - -
30/10:30pm 16.6 E 6 7 1011.4 - 0.0 - - - - - - -
30/10:00pm 16.5 E 6 7 1011.6 - 0.0 - - - - - - -
30/09:30pm 16.6 ENE 6 8 1011.7 - 0.0 - - - - - - -
30/09:00pm 16.7 ENE 8 10 1011.6 - 0.0 - - - - - - -
30/08:30pm 16.6 ENE 7 9 1011.7 - 0.0 - - - - - - -
30/08:00pm 16.4 E 7 8 1011.7 - 0.0 - - - - - - -
30/07:30pm 16.5 ESE 7 8 1011.4 - 0.0 - - - - - - -
30/07:00pm 17.4 SE 6 8 1011.4 - 0.0 - - - - - - -
30/06:30pm 18.1 ESE 6 7 1011.4 - 0.0 - - - - - - -
30/06:00pm 18.0 E 7 8 1011.6 - 0.0 - - - - - - -
30/05:30pm 18.1 E 5 7 1011.9 - 0.0 - - - - - - -
30/05:00pm 17.8 E 5 6 1012.2 - 0.0 - - - - - - -
30/04:30pm 18.4 ESE 5 6 1012.6 - 0.0 - - - - - - -
30/04:00pm 18.3 E 4 6 1013.2 - 0.0 - - - - - - -
30/03:30pm 17.3 SSE 5 7 1013.5 - 0.0 - - - - - - -
30/03:00pm 18.1 SE 6 7 1013.9 - 0.0 - - - - - - -
30/02:30pm 17.6 SE 6 8 1014.3 - 0.0 - - - - - - -
30/02:00pm 17.6 SSE 7 9 1014.8 - 0.0 - - - - - - -
30/01:30pm 17.9 SSE 5 7 1015.2 - 0.0 - - - - - - -
30/01:00pm 17.4 SE 6 9 1015.0 - 0.0 - - - - - - -
30/12:30pm 17.4 SE 6 8 1015.6 - 0.0 - - - - - - -
30/12:00pm 17.2 SSE 6 8 1015.7 - 0.0 - - - - - - -
30/11:30am 17.7 SSE 6 8 1015.9 - 0.0 - - - - - - -
30/11:00am 16.9 SSE 5 7 1015.9 - 0.0 - - - - - - -
30/10:30am 17.2 SE 5 7 1016.3 - 0.0 - - - - - - -
30/10:00am 17.0 SE 5 7 1016.4 - 0.0 - - - - - - -
30/09:30am 16.2 SSE 4 6 1016.5 - 0.0 - - - - - - -
30/09:00am 16.0 E 3 5 1016.5 - 0.0 - - - - - - -
30/08:30am 15.4 ENE 2 4 1016.3 - 0.0 - - - - - - -
30/08:00am 14.8 N 2 4 1016.2 - 0.0 - - - - - - -
30/07:30am 13.6 N 1 2 1016.4 - 0.0 - - - - - - -
30/07:00am 12.4 W 1 2 1016.4 - 0.0 - - - - - - -
30/06:30am 12.4 CALM 0 0 1016.1 - 0.0 - - - - - - -
30/06:00am 12.0 CALM 0 0 1015.9 - 0.0 - - - - - - -
30/05:30am 11.4 CALM 0 0 1015.7 - 0.0 - - - - - - -
30/05:00am 11.5 N 3 4 1015.1 - 0.0 - - - - - - -
30/04:30am 13.3 S 4 5 1015.6 - 0.0 - - - - - - -
30/04:00am 13.6 S 6 8 1016.2 - 0.0 - - - - - - -
30/03:30am 13.6 S 7 8 1016.2 - 0.0 - - - - - - -
30/03:00am 13.4 SSW 7 9 1016.2 - 0.0 - - - - - - -
30/02:30am 12.6 SSW 4 6 1016.2 - 0.0 - - - - - - -
30/02:00am 12.6 S 2 2 1016.0 - 0.0 - - - - - - -
30/01:30am 12.9 SSW 1 3 1016.3 - 0.0 - - - - - - -
30/01:00am 13.1 SSW 5 7 1016.6 - 0.0 - - - - - - -
30/12:30am 13.3 S 4 6 1017.3 - 0.0 - - - - - - -
30/12:00am 14.0 S 7 9 1017.6 - 0.0 - - - - - - -
 
Date/Time
CDT
Temp

°C
Wind Pressure Rain
since 9am
mm
Weather Cloud Vis
km
Sea
Height
m
Swell
Dir
 
Speed
knots
Gust
knots
hPa Trend Height
m
Period
s
Dir
29/11:30pm 14.2 S 8 11 1017.8 - 0.0 - - - - - - -
29/11:00pm 14.3 S 8 11 1017.9 - 0.0 - - - - - - -
29/10:30pm 14.4 S 9 11 1018.2 - 0.0 - - - - - - -
29/10:00pm 14.3 SSW 8 11 1018.2 - 0.0 - - - - - - -
29/09:30pm 14.6 SSW 10 14 1017.7 - 0.0 - - - - - - -
29/09:00pm 14.5 SSW 9 13 1017.5 - 0.0 - - - - - - -
29/08:30pm 14.6 SSW 10 14 1017.3 - 0.0 - - - - - - -
29/08:00pm 15.0 S 10 13 1017.3 - 0.0 - - - - - - -
29/07:30pm 15.3 SSW 10 14 1017.5 - 0.0 - - - - - - -
29/07:00pm 15.6 SSW 8 12 1017.3 - 0.0 - - - - - - -
29/06:30pm 15.9 SW 8 12 1017.5 - 0.0 - - - - - - -
29/06:00pm 16.6 SSW 8 14 1017.0 - 0.0 - - - - - - -
29/05:30pm 16.1 SW 8 13 1016.9 - 0.0 - - - - - - -
29/05:00pm 16.5 SW 11 15 1017.0 - 0.0 - - - - - - -
29/04:30pm 17.3 SW 10 14 1017.2 - 0.0 - - - - - - -
29/04:00pm 17.7 SW 11 14 1017.4 - 0.0 - - - - - - -
29/03:30pm 18.5 SW 12 16 1017.2 - 0.0 - - - - - - -
29/03:00pm 18.5 SW 13 16 1017.4 - 0.0 - - - - - - -
29/02:30pm 19.2 SW 11 16 1017.7 - 0.0 - - - - - - -
29/02:00pm 21.3 NW 6 13 1017.9 - 0.0 - - - - - - -
29/01:30pm 20.9 NNW 6 14 1018.3 - 0.0 - - - - - - -
29/01:00pm 20.3 NW 8 13 1018.5 - 0.0 - - - - - - -
29/12:30pm 19.7 NW 9 15 1018.7 - 0.0 - - - - - - -
29/12:00pm 19.4 NNW 8 14 1018.9 - 0.0 - - - - - - -
29/11:30am 20.1 NW 8 14 1019.2 - 0.0 - - - - - - -
29/11:00am 18.2 NNW 8 13 1019.2 - 0.0 - - - - - - -
29/10:30am 17.2 NNW 6 10 1019.3 - 0.0 - - - - - - -
29/10:00am 16.8 NW 5 7 1019.4 - 0.0 - - - - - - -
29/09:30am 16.8 NNW 5 9 1019.3 - 0.0 - - - - - - -
29/09:00am 16.2 N 5 9 1019.5 - 0.0 - - - - - - -
29/08:30am 15.9 NNW 4 5 1019.6 - 0.0 - - - - - - -
29/08:00am 14.7 NNW 2 4 1019.6 - 0.0 - - - - - - -
29/07:30am 13.8 NW 1 2 1019.5 - 0.0 - - - - - - -
29/07:00am 13.3 NNW 2 2 1019.6 - 0.0 - - - - - - -
29/06:30am 12.8 NW 2 3 1019.4 - 0.0 - - - - - - -
29/06:00am 12.8 NNW 2 2 1019.3 - 0.0 - - - - - - -
29/05:30am 13.0 NNW 2 3 1019.3 - 0.0 - - - - - - -
29/05:00am 13.4 NW 3 3 1019.2 - 0.0 - - - - - - -
29/04:30am 13.5 NW 2 2 1019.1 - 0.0 - - - - - - -
29/04:00am 13.5 W 2 3 1019.1 - 0.0 - - - - - - -
29/03:30am 13.5 W 2 2 1019.1 - 0.0 - - - - - - -
29/03:00am 13.7 WNW 3 3 1019.3 - 0.0 - - - - - - -
29/02:30am 13.8 W 3 5 1019.4 - 0.0 - - - - - - -
29/02:00am 13.7 W 4 5 1019.5 - 0.0 - - - - - - -
29/01:30am 13.9 W 3 4 1019.8 - 0.0 - - - - - - -
29/01:00am 13.6 WSW 5 7 1020.0 - 0.0 - - - - - - -
29/12:30am 13.5 WSW 5 8 1020.1 - 0.0 - - - - - - -
29/12:00am 14.3 SW 4 6 1020.2 - 0.0 - - - - - - -
 
Date/Time
CDT
Temp

°C
Wind Pressure Rain
since 9am
mm
Weather Cloud Vis
km
Sea
Height
m
Swell
Dir
 
Speed
knots
Gust
knots
hPa Trend Height
m
Period
s
Dir
28/11:30pm 14.1 WSW 6 8 1020.2 - 0.0 - - - - - - -
28/11:00pm 14.5 SW 7 10 1020.2 - 0.0 - - - - - - -
28/10:30pm 14.5 SW 6 8 1020.3 - 0.0 - - - - - - -
28/10:00pm 14.7 SSW 6 9 1020.2 - 0.0 - - - - - - -
28/09:30pm 14.8 SSW 8 11 1020.1 - 0.0 - - - - - - -
28/09:00pm 14.8 SSW 7 11 1019.9 - 0.0 - - - - - - -
28/08:30pm 14.7 SW 6 9 1019.9 - 0.0 - - - - - - -
28/08:00pm 14.5 WSW 8 11 1019.8 - 0.0 - - - - - - -
28/07:30pm 14.8 SW 8 11 1019.7 - 0.0 - - - - - - -
28/07:00pm 15.3 WSW 7 10 1019.5 - 0.0 - - - - - - -
28/06:30pm 15.9 SW 9 13 1019.5 - 0.0 - - - - - - -

Other Formats:

Comma delimited format used in spreadsheet applications
http://www.bom.gov.au/fwo/IDS60701/IDS60701.95806.axf

JavaScript Object Notation format (JSON) in row-major order
http://www.bom.gov.au/fwo/IDS60701/IDS60701.95806.json